Gravel Switch, Kentucky
Current Conditions -  °F | °C
As of 9:15 AM on Monday 24 Nov 2014 (Local Time) from K6I2 Reporting Station
Broken Clouds Broken Clouds  
Wind Chill: 61°   Ceiling: 5000
Heat Index: 61°   Visibility: 10mi
Dew Point: 48°   Wind: 35mph
Humidity: 63%   Direction: 210°SSW
Pressure: 29.49"   Gusts: 46mph
Location:  37.58°N, 85.05°W
Report Text: K6I2 241415Z AUTO 21030G40KT 10SM FEW038 SCT044 BKN050 16/09 A2949 RMK AO2
Loading
Personal Weather Stations






























Interactive Weather Map New forecast layout! Learn more

10-Day Weather Forecast

Advertisements
Track Severe Weather on mobile